sensor_id;sensor_type;location;lat;lon;timestamp;pressure;altitude;pressure_sealevel;temperature;humidity
32789;BME280;19141;48.980;8.410;2023-04-08T04:22:32;100632.38;;;8.25;100.00
32789;BME280;19141;48.980;8.410;2023-04-08T04:24:58;100636.09;;;8.32;100.00
32789;BME280;19141;48.980;8.410;2023-04-08T04:27:23;100636.53;;;8.37;100.00
32789;BME280;19141;48.980;8.410;2023-04-08T04:29:49;100638.59;;;8.33;100.00
32789;BME280;19141;48.980;8.410;2023-04-08T04:32:14;100637.22;;;8.39;100.00
32789;BME280;19141;48.980;8.410;2023-04-08T04:34:40;100639.59;;;8.32;100.00
32789;BME280;19141;48.980;8.410;2023-04-08T04:37:06;100644.06;;;8.41;100.00
32789;BME280;19141;48.980;8.410;2023-04-08T04:39:31;100646.00;;;8.39;100.00
32789;BME280;19141;48.980;8.410;2023-04-08T04:41:56;100643.25;;;8.31;100.00
32789;BME280;19141;48.980;8.410;2023-04-08T04:44:22;100635.94;;;8.33;100.00
32789;BME280;19141;48.980;8.410;2023-04-08T04:46:48;100641.25;;;8.33;100.00
32789;BME280;19141;48.980;8.410;2023-04-08T04:49:13;100647.31;;;8.26;100.00
32789;BME280;19141;48.980;8.410;2023-04-08T04:51:38;100651.19;;;8.31;100.00
32789;BME280;19141;48.980;8.410;2023-04-08T04:54:04;100653.03;;;8.31;100.00
32789;BME280;19141;48.980;8.410;2023-04-08T04:56:29;100658.19;;;8.32;100.00
32789;BME280;19141;48.980;8.410;2023-04-08T04:58:55;100646.56;;;8.33;100.00
32789;BME280;19141;48.980;8.410;2023-04-08T05:01:20;100659.28;;;8.39;100.00
32789;BME280;19141;48.980;8.410;2023-04-08T05:03:46;100655.28;;;8.35;100.00
32789;BME280;19141;48.980;8.410;2023-04-08T05:06:11;100663.25;;;8.35;100.00
32789;BME280;19141;48.980;8.410;2023-04-08T05:08:36;100662.50;;;8.33;100.00
32789;BME280;19141;48.980;8.410;2023-04-08T05:11:02;100670.34;;;8.35;100.00
32789;BME280;19141;48.980;8.410;2023-04-08T05:13:28;100665.56;;;8.38;100.00
32789;BME280;19141;48.980;8.410;2023-04-08T05:15:53;100679.16;;;8.35;100.00
32789;BME280;19141;48.980;8.410;2023-04-08T05:18:19;100670.72;;;8.40;100.00
32789;BME280;19141;48.980;8.410;2023-04-08T05:20:44;100671.44;;;8.42;100.00
32789;BME280;19141;48.980;8.410;2023-04-08T05:23:10;100674.63;;;8.46;100.00
32789;BME280;19141;48.980;8.410;2023-04-08T05:25:36;100682.31;;;8.49;100.00
32789;BME280;19141;48.980;8.410;2023-04-08T05:28:01;100682.97;;;8.51;100.00
32789;BME280;19141;48.980;8.410;2023-04-08T05:30:27;100680.00;;;8.54;100.00
32789;BME280;19141;48.980;8.410;2023-04-08T05:32:53;100682.31;;;8.49;100.00
32789;BME280;19141;48.980;8.410;2023-04-08T05:35:18;100681.31;;;8.50;100.00
32789;BME280;19141;48.980;8.410;2023-04-08T05:37:43;100681.81;;;8.53;100.00
32789;BME280;19141;48.980;8.410;2023-04-08T05:40:09;100686.03;;;8.56;100.00
32789;BME280;19141;48.980;8.410;2023-04-08T05:42:34;100690.75;;;8.62;100.00
32789;BME280;19141;48.980;8.410;2023-04-08T05:45:00;100690.59;;;8.63;100.00
32789;BME280;19141;48.980;8.410;2023-04-08T05:47:25;100702.19;;;8.62;100.00
32789;BME280;19141;48.980;8.410;2023-04-08T05:49:51;100693.09;;;8.65;100.00
32789;BME280;19141;48.980;8.410;2023-04-08T05:52:17;100697.28;;;8.67;100.00
32789;BME280;19141;48.980;8.410;2023-04-08T05:54:42;100698.47;;;8.73;100.00
32789;BME280;19141;48.980;8.410;2023-04-08T05:57:08;100699.31;;;8.74;100.00
32789;BME280;19141;48.980;8.410;2023-04-08T05:59:34;100695.28;;;8.69;100.00
32789;BME280;19141;48.980;8.410;2023-04-08T06:01:59;100701.13;;;8.73;100.00
32789;BME280;19141;48.980;8.410;2023-04-08T06:04:25;100709.69;;;8.67;100.00
32789;BME280;19141;48.980;8.410;2023-04-08T06:06:50;100706.19;;;8.66;100.00
32789;BME280;19141;48.980;8.410;2023-04-08T06:09:16;100706.44;;;8.73;100.00
32789;BME280;19141;48.980;8.410;2023-04-08T06:11:41;100707.97;;;8.76;100.00
32789;BME280;19141;48.980;8.410;2023-04-08T06:14:06;100710.19;;;8.80;100.00
32789;BME280;19141;48.980;8.410;2023-04-08T06:16:32;100715.50;;;8.80;100.00
32789;BME280;19141;48.980;8.410;2023-04-08T06:18:57;100713.28;;;8.76;100.00
32789;BME280;19141;48.980;8.410;2023-04-08T06:21:23;100716.84;;;8.84;100.00
32789;BME280;19141;48.980;8.410;2023-04-08T06:23:48;100715.59;;;8.88;100.00
32789;BME280;19141;48.980;8.410;2023-04-08T06:26:13;100717.94;;;8.91;100.00
32789;BME280;19141;48.980;8.410;2023-04-08T06:28:39;100717.25;;;8.89;100.00
32789;BME280;19141;48.980;8.410;2023-04-08T06:31:05;100720.13;;;8.96;100.00
32789;BME280;19141;48.980;8.410;2023-04-08T06:33:30;100714.44;;;8.91;100.00
32789;BME280;19141;48.980;8.410;2023-04-08T06:36:02;100722.34;;;9.01;100.00
32789;BME280;19141;48.980;8.410;2023-04-08T06:38:28;100718.31;;;8.96;100.00
32789;BME280;19141;48.980;8.410;2023-04-08T06:40:54;100727.66;;;9.01;100.00
32789;BME280;19141;48.980;8.410;2023-04-08T06:43:20;100732.81;;;9.02;100.00
32789;BME280;19141;48.980;8.410;2023-04-08T06:45:46;100731.97;;;9.02;100.00
32789;BME280;19141;48.980;8.410;2023-04-08T06:48:11;100736.38;;;9.11;100.00
32789;BME280;19141;48.980;8.410;2023-04-08T06:50:36;100736.09;;;9.14;100.00
32789;BME280;19141;48.980;8.410;2023-04-08T06:53:02;100734.66;;;9.19;100.00
32789;BME280;19141;48.980;8.410;2023-04-08T06:55:27;100737.81;;;9.23;100.00
32789;BME280;19141;48.980;8.410;2023-04-08T06:57:53;100740.09;;;9.18;100.00
32789;BME280;19141;48.980;8.410;2023-04-08T07:00:18;100743.38;;;9.30;100.00
32789;BME280;19141;48.980;8.410;2023-04-08T07:02:43;100744.25;;;9.38;100.00
32789;BME280;19141;48.980;8.410;2023-04-08T07:05:09;100742.84;;;9.26;100.00
32789;BME280;19141;48.980;8.410;2023-04-08T07:07:35;100742.00;;;9.25;100.00
32789;BME280;19141;48.980;8.410;2023-04-08T07:10:00;100751.28;;;9.39;100.00
32789;BME280;19141;48.980;8.410;2023-04-08T07:12:25;100747.91;;;9.37;100.00
32789;BME280;19141;48.980;8.410;2023-04-08T07:14:51;100752.31;;;9.46;100.00
32789;BME280;19141;48.980;8.410;2023-04-08T07:17:17;100750.66;;;9.45;100.00
32789;BME280;19141;48.980;8.410;2023-04-08T07:19:43;100759.00;;;9.50;100.00
32789;BME280;19141;48.980;8.410;2023-04-08T07:22:08;100747.00;;;9.46;100.00
32789;BME280;19141;48.980;8.410;2023-04-08T07:24:34;100745.09;;;9.39;100.00
32789;BME280;19141;48.980;8.410;2023-04-08T07:26:59;100759.97;;;9.49;100.00
32789;BME280;19141;48.980;8.410;2023-04-08T07:29:24;100760.38;;;9.55;100.00
32789;BME280;19141;48.980;8.410;2023-04-08T07:31:50;100755.47;;;9.68;100.00
32789;BME280;19141;48.980;8.410;2023-04-08T07:34:16;100764.97;;;9.70;100.00
32789;BME280;19141;48.980;8.410;2023-04-08T07:36:41;100760.06;;;9.84;98.38
32789;BME280;19141;48.980;8.410;2023-04-08T07:39:07;100766.59;;;9.89;98.45
32789;BME280;19141;48.980;8.410;2023-04-08T07:41:32;100761.13;;;9.91;98.46
32789;BME280;19141;48.980;8.410;2023-04-08T07:43:57;100768.38;;;10.06;97.83
32789;BME280;19141;48.980;8.410;2023-04-08T07:46:23;100763.84;;;9.99;95.67
32789;BME280;19141;48.980;8.410;2023-04-08T07:48:48;100763.06;;;10.06;96.69
32789;BME280;19141;48.980;8.410;2023-04-08T07:51:14;100767.53;;;10.24;96.89
32789;BME280;19141;48.980;8.410;2023-04-08T07:53:39;100770.72;;;10.36;93.37
32789;BME280;19141;48.980;8.410;2023-04-08T07:56:12;100767.19;;;10.27;92.00
32789;BME280;19141;48.980;8.410;2023-04-08T07:58:38;100770.47;;;10.21;94.92
32789;BME280;19141;48.980;8.410;2023-04-08T08:01:13;100777.25;;;10.41;94.51
32789;BME280;19141;48.980;8.410;2023-04-08T08:03:39;100770.84;;;10.60;90.94
32789;BME280;19141;48.980;8.410;2023-04-08T08:06:04;100775.44;;;10.84;88.64
32789;BME280;19141;48.980;8.410;2023-04-08T08:08:30;100778.56;;;10.71;90.15
32789;BME280;19141;48.980;8.410;2023-04-08T08:10:57;100790.66;;;10.57;90.87
32789;BME280;19141;48.980;8.410;2023-04-08T08:13:22;100781.69;;;10.67;87.89
32789;BME280;19141;48.980;8.410;2023-04-08T08:15:51;100794.22;;;10.40;87.69
32789;BME280;19141;48.980;8.410;2023-04-08T08:18:17;100796.28;;;10.54;88.60
32789;BME280;19141;48.980;8.410;2023-04-08T08:20:42;100785.38;;;10.82;87.48
32789;BME280;19141;48.980;8.410;2023-04-08T08:23:08;100793.75;;;10.87;83.91
32789;BME280;19141;48.980;8.410;2023-04-08T08:25:33;100787.75;;;10.85;86.03
32789;BME280;19141;48.980;8.410;2023-04-08T08:27:59;100787.56;;;10.78;87.47
32789;BME280;19141;48.980;8.410;2023-04-08T08:30:24;100788.03;;;10.74;84.22
32789;BME280;19141;48.980;8.410;2023-04-08T08:32:50;100788.09;;;10.90;83.63
32789;BME280;19141;48.980;8.410;2023-04-08T08:35:16;100790.50;;;11.18;86.68
32789;BME280;19141;48.980;8.410;2023-04-08T08:37:41;100797.78;;;10.99;81.25
32789;BME280;19141;48.980;8.410;2023-04-08T08:40:07;100795.31;;;11.06;80.43
32789;BME280;19141;48.980;8.410;2023-04-08T08:42:33;100799.50;;;11.17;82.83
32789;BME280;19141;48.980;8.410;2023-04-08T08:45:01;100795.19;;;11.24;83.59
32789;BME280;19141;48.980;8.410;2023-04-08T08:47:27;100791.53;;;11.49;80.22
32789;BME280;19141;48.980;8.410;2023-04-08T08:49:53;100792.22;;;11.84;81.94
32789;BME280;19141;48.980;8.410;2023-04-08T08:52:18;100795.22;;;11.48;78.69
32789;BME280;19141;48.980;8.410;2023-04-08T08:54:44;100801.22;;;11.75;80.18
32789;BME280;19141;48.980;8.410;2023-04-08T08:57:19;100797.88;;;11.56;80.77
32789;BME280;19141;48.980;8.410;2023-04-08T08:59:46;100799.19;;;11.60;80.10
32789;BME280;19141;48.980;8.410;2023-04-08T09:02:30;100791.72;;;11.88;80.36
32789;BME280;19141;48.980;8.410;2023-04-08T09:07:24;100801.84;;;12.34;70.93
32789;BME280;19141;48.980;8.410;2023-04-08T09:09:52;100801.44;;;12.53;71.11
32789;BME280;19141;48.980;8.410;2023-04-08T09:12:17;100801.50;;;12.76;73.62
32789;BME280;19141;48.980;8.410;2023-04-08T09:14:43;100798.44;;;12.87;71.23
32789;BME280;19141;48.980;8.410;2023-04-08T09:17:09;100800.34;;;12.79;69.67
32789;BME280;19141;48.980;8.410;2023-04-08T09:19:35;100797.41;;;13.27;67.44
32789;BME280;19141;48.980;8.410;2023-04-08T09:22:08;100802.34;;;13.39;71.16
32789;BME280;19141;48.980;8.410;2023-04-08T09:24:34;100794.28;;;13.16;68.65
32789;BME280;19141;48.980;8.410;2023-04-08T09:27:01;100791.88;;;13.29;67.23
32789;BME280;19141;48.980;8.410;2023-04-08T09:29:26;100792.41;;;13.16;67.10
32789;BME280;19141;48.980;8.410;2023-04-08T09:31:56;100793.38;;;13.00;66.26
32789;BME280;19141;48.980;8.410;2023-04-08T09:34:22;100801.38;;;13.00;68.43
32789;BME280;19141;48.980;8.410;2023-04-08T09:36:49;100795.84;;;13.02;66.55
32789;BME280;19141;48.980;8.410;2023-04-08T09:39:15;100800.38;;;13.33;69.04
32789;BME280;19141;48.980;8.410;2023-04-08T09:41:42;100796.81;;;13.63;61.91
32789;BME280;19141;48.980;8.410;2023-04-08T09:44:09;100795.84;;;13.56;64.64
32789;BME280;19141;48.980;8.410;2023-04-08T09:54:53;100798.81;;;13.84;58.42
32789;BME280;19141;48.980;8.410;2023-04-08T09:57:43;100794.91;;;13.72;58.98
32789;BME280;19141;48.980;8.410;2023-04-08T10:00:16;100801.22;;;13.94;58.44
32789;BME280;19141;48.980;8.410;2023-04-08T10:05:12;100805.81;;;13.70;57.95
32789;BME280;19141;48.980;8.410;2023-04-08T10:07:38;100805.31;;;13.67;58.71
32789;BME280;19141;48.980;8.410;2023-04-08T10:10:04;100803.25;;;13.92;58.16
32789;BME280;19141;48.980;8.410;2023-04-08T10:12:31;100806.34;;;14.18;57.65
32789;BME280;19141;48.980;8.410;2023-04-08T10:17:51;100800.78;;;13.90;58.24
32789;BME280;19141;48.980;8.410;2023-04-08T10:20:43;100799.44;;;14.09;55.19
32789;BME280;19141;48.980;8.410;2023-04-08T10:23:11;100796.47;;;14.33;56.68
32789;BME280;19141;48.980;8.410;2023-04-08T10:25:41;100802.69;;;14.63;57.97
32789;BME280;19141;48.980;8.410;2023-04-08T10:31:00;100800.91;;;14.26;56.83
32789;BME280;19141;48.980;8.410;2023-04-08T10:38:31;100792.13;;;14.32;53.43
32789;BME280;19141;48.980;8.410;2023-04-08T10:40:56;100799.81;;;14.65;51.59
32789;BME280;19141;48.980;8.410;2023-04-08T10:43:22;100792.09;;;15.06;53.30
32789;BME280;19141;48.980;8.410;2023-04-08T10:45:48;100785.44;;;15.24;52.47
32789;BME280;19141;48.980;8.410;2023-04-08T10:50:59;100786.34;;;15.09;46.96
32789;BME280;19141;48.980;8.410;2023-04-08T10:53:29;100789.94;;;14.51;51.68
32789;BME280;19141;48.980;8.410;2023-04-08T10:56:08;100784.88;;;15.07;46.04
32789;BME280;19141;48.980;8.410;2023-04-08T10:58:35;100778.09;;;15.11;45.50
32789;BME280;19141;48.980;8.410;2023-04-08T11:01:07;100786.81;;;15.13;44.26
32789;BME280;19141;48.980;8.410;2023-04-08T11:03:33;100781.44;;;15.34;42.98
32789;BME280;19141;48.980;8.410;2023-04-08T11:06:00;100773.66;;;14.82;44.53
32789;BME280;19141;48.980;8.410;2023-04-08T11:08:32;100780.94;;;14.88;47.43
32789;BME280;19141;48.980;8.410;2023-04-08T11:10:58;100783.22;;;14.55;50.22
32789;BME280;19141;48.980;8.410;2023-04-08T11:13:28;100784.75;;;14.64;50.39
32789;BME280;19141;48.980;8.410;2023-04-08T11:15:57;100785.59;;;14.50;50.10
32789;BME280;19141;48.980;8.410;2023-04-08T11:18:23;100783.22;;;13.88;52.48
32789;BME280;19141;48.980;8.410;2023-04-08T11:20:49;100784.28;;;13.64;54.62
32789;BME280;19141;48.980;8.410;2023-04-08T11:23:16;100779.91;;;13.63;55.85
32789;BME280;19141;48.980;8.410;2023-04-08T11:25:42;100781.94;;;13.61;55.65
32789;BME280;19141;48.980;8.410;2023-04-08T11:28:09;100780.25;;;13.45;55.15
32789;BME280;19141;48.980;8.410;2023-04-08T11:30:35;100784.19;;;13.49;47.83
32789;BME280;19141;48.980;8.410;2023-04-08T11:33:01;100779.16;;;13.31;47.77
32789;BME280;19141;48.980;8.410;2023-04-08T11:35:29;100784.31;;;13.55;48.39
32789;BME280;19141;48.980;8.410;2023-04-08T11:37:56;100785.44;;;13.61;47.88
32789;BME280;19141;48.980;8.410;2023-04-08T11:40:22;100783.97;;;13.36;49.29
32789;BME280;19141;48.980;8.410;2023-04-08T11:42:52;100783.28;;;13.11;45.76
32789;BME280;19141;48.980;8.410;2023-04-08T11:45:19;100794.72;;;12.57;46.40
32789;BME280;19141;48.980;8.410;2023-04-08T11:47:45;100784.63;;;12.36;46.34
32789;BME280;19141;48.980;8.410;2023-04-08T11:50:11;100790.47;;;12.40;46.58
32789;BME280;19141;48.980;8.410;2023-04-08T11:52:47;100784.00;;;12.26;46.15
32789;BME280;19141;48.980;8.410;2023-04-08T11:55:28;100786.75;;;12.49;45.42
32789;BME280;19141;48.980;8.410;2023-04-08T11:57:55;100786.75;;;12.49;47.26
32789;BME280;19141;48.980;8.410;2023-04-08T12:00:22;100783.47;;;12.78;45.76
32789;BME280;19141;48.980;8.410;2023-04-08T12:02:48;100784.19;;;12.95;46.18
32789;BME280;19141;48.980;8.410;2023-04-08T12:05:14;100783.09;;;13.12;48.55
32789;BME280;19141;48.980;8.410;2023-04-08T12:07:40;100789.41;;;13.19;47.65
32789;BME280;19141;48.980;8.410;2023-04-08T12:10:07;100787.31;;;13.07;46.12
32789;BME280;19141;48.980;8.410;2023-04-08T12:12:33;100788.38;;;13.51;46.42
32789;BME280;19141;48.980;8.410;2023-04-08T12:14:58;100783.41;;;13.86;44.63
32789;BME280;19141;48.980;8.410;2023-04-08T12:17:24;100784.00;;;13.73;44.47
32789;BME280;19141;48.980;8.410;2023-04-08T12:19:49;100789.28;;;13.44;46.73
32789;BME280;19141;48.980;8.410;2023-04-08T12:22:15;100787.38;;;13.52;45.90
32789;BME280;19141;48.980;8.410;2023-04-08T12:24:40;100784.00;;;13.73;47.34
32789;BME280;19141;48.980;8.410;2023-04-08T12:27:06;100783.91;;;13.67;50.48
32789;BME280;19141;48.980;8.410;2023-04-08T12:29:31;100787.56;;;13.51;47.50
32789;BME280;19141;48.980;8.410;2023-04-08T12:31:57;100786.38;;;13.68;47.80
32789;BME280;19141;48.980;8.410;2023-04-08T12:34:23;100787.63;;;13.80;50.43
32789;BME280;19141;48.980;8.410;2023-04-08T12:36:48;100783.47;;;13.55;51.20
32789;BME280;19141;48.980;8.410;2023-04-08T12:39:14;100778.91;;;13.41;50.67
32789;BME280;19141;48.980;8.410;2023-04-08T12:41:40;100790.09;;;13.67;49.86
32789;BME280;19141;48.980;8.410;2023-04-08T12:44:05;100780.44;;;13.43;49.86
32789;BME280;19141;48.980;8.410;2023-04-08T12:46:31;100792.94;;;13.66;46.91
32789;BME280;19141;48.980;8.410;2023-04-08T12:48:56;100787.94;;;13.63;46.41
32789;BME280;19141;48.980;8.410;2023-04-08T12:51:22;100793.50;;;13.99;45.82
32789;BME280;19141;48.980;8.410;2023-04-08T12:53:47;100798.09;;;13.90;45.81
32789;BME280;19141;48.980;8.410;2023-04-08T12:56:13;100793.41;;;14.07;45.32
32789;BME280;19141;48.980;8.410;2023-04-08T12:58:38;100796.25;;;13.91;46.96
32789;BME280;19141;48.980;8.410;2023-04-08T13:01:03;100794.47;;;13.83;43.54
32789;BME280;19141;48.980;8.410;2023-04-08T13:03:30;100783.47;;;13.55;44.39
32789;BME280;19141;48.980;8.410;2023-04-08T13:05:56;100796.25;;;13.91;44.33
32789;BME280;19141;48.980;8.410;2023-04-08T13:08:23;100787.31;;;13.75;42.81
32789;BME280;19141;48.980;8.410;2023-04-08T13:10:49;100795.44;;;13.67;42.13
32789;BME280;19141;48.980;8.410;2023-04-08T13:13:14;100777.41;;;12.84;45.24
32789;BME280;19141;48.980;8.410;2023-04-08T13:15:40;100792.03;;;12.96;44.04
32789;BME280;19141;48.980;8.410;2023-04-08T13:18:05;100792.84;;;13.05;43.93
32789;BME280;19141;48.980;8.410;2023-04-08T13:20:30;100780.66;;;13.34;42.55
32789;BME280;19141;48.980;8.410;2023-04-08T13:22:56;100786.97;;;13.78;43.10
32789;BME280;19141;48.980;8.410;2023-04-08T13:25:21;100792.00;;;13.58;43.02
32789;BME280;19141;48.980;8.410;2023-04-08T13:27:47;100784.91;;;14.03;45.80
32789;BME280;19141;48.980;8.410;2023-04-08T13:30:12;100780.03;;;14.36;41.37
32789;BME280;19141;48.980;8.410;2023-04-08T13:32:38;100782.63;;;14.59;41.64
32789;BME280;19141;48.980;8.410;2023-04-08T13:35:03;100779.94;;;15.10;42.61
32789;BME280;19141;48.980;8.410;2023-04-08T13:37:29;100777.97;;;15.19;40.04
32789;BME280;19141;48.980;8.410;2023-04-08T13:39:55;100775.28;;;15.19;39.44
32789;BME280;19141;48.980;8.410;2023-04-08T13:42:21;100777.16;;;14.82;40.75
32789;BME280;19141;48.980;8.410;2023-04-08T13:44:47;100781.53;;;14.69;41.57
32789;BME280;19141;48.980;8.410;2023-04-08T13:47:12;100786.28;;;14.14;42.50
32789;BME280;19141;48.980;8.410;2023-04-08T13:49:38;100781.97;;;14.43;40.89
32789;BME280;19141;48.980;8.410;2023-04-08T13:52:03;100767.72;;;14.12;41.72
32789;BME280;19141;48.980;8.410;2023-04-08T13:54:28;100777.81;;;14.10;41.65
32789;BME280;19141;48.980;8.410;2023-04-08T13:56:54;100776.31;;;14.08;40.83
32789;BME280;19141;48.980;8.410;2023-04-08T13:59:19;100773.22;;;13.81;42.66
32789;BME280;19141;48.980;8.410;2023-04-08T14:01:45;100782.50;;;13.33;45.56
32789;BME280;19141;48.980;8.410;2023-04-08T14:04:10;100783.75;;;13.14;45.44
32789;BME280;19141;48.980;8.410;2023-04-08T14:06:36;100782.34;;;13.49;44.73
32789;BME280;19141;48.980;8.410;2023-04-08T14:09:01;100781.66;;;13.33;46.62
32789;BME280;19141;48.980;8.410;2023-04-08T14:11:27;100774.72;;;12.84;47.89
32789;BME280;19141;48.980;8.410;2023-04-08T14:13:52;100779.09;;;13.08;46.75
32789;BME280;19141;48.980;8.410;2023-04-08T14:16:17;100785.22;;;13.25;46.37
32789;BME280;19141;48.980;8.410;2023-04-08T14:18:44;100773.28;;;13.04;49.02
32789;BME280;19141;48.980;8.410;2023-04-08T14:21:09;100767.75;;;13.37;47.70
32789;BME280;19141;48.980;8.410;2023-04-08T14:23:35;100774.78;;;13.38;51.17
32789;BME280;19141;48.980;8.410;2023-04-08T14:26:00;100774.97;;;13.74;50.58
32789;BME280;19141;48.980;8.410;2023-04-08T14:28:26;100768.72;;;13.44;48.15
32789;BME280;19141;48.980;8.410;2023-04-08T14:30:51;100776.38;;;13.16;48.10
32789;BME280;19141;48.980;8.410;2023-04-08T14:33:17;100777.81;;;13.04;50.08
32789;BME280;19141;48.980;8.410;2023-04-08T14:35:42;100778.09;;;13.09;49.29
32789;BME280;19141;48.980;8.410;2023-04-08T14:38:08;100768.16;;;13.26;50.30
32789;BME280;19141;48.980;8.410;2023-04-08T14:40:33;100767.53;;;13.24;49.87
32789;BME280;19141;48.980;8.410;2023-04-08T14:42:58;100783.22;;;13.19;54.04
32789;BME280;19141;48.980;8.410;2023-04-08T14:45:24;100776.66;;;13.29;52.79
32789;BME280;19141;48.980;8.410;2023-04-08T14:47:49;100778.06;;;13.17;51.63
32789;BME280;19141;48.980;8.410;2023-04-08T14:50:15;100774.13;;;13.05;54.70
32789;BME280;19141;48.980;8.410;2023-04-08T14:52:40;100777.53;;;13.22;53.18
32789;BME280;19141;48.980;8.410;2023-04-08T14:55:06;100775.47;;;13.55;51.47
32789;BME280;19141;48.980;8.410;2023-04-08T14:57:31;100764.25;;;13.37;55.96
32789;BME280;19141;48.980;8.410;2023-04-08T14:59:57;100769.25;;;13.77;51.36
32789;BME280;19141;48.980;8.410;2023-04-08T15:02:23;100778.69;;;13.88;55.28
32789;BME280;19141;48.980;8.410;2023-04-08T15:04:49;100774.19;;;14.03;52.97
32789;BME280;19141;48.980;8.410;2023-04-08T15:07:14;100771.53;;;14.03;52.76
32789;BME280;19141;48.980;8.410;2023-04-08T15:09:39;100769.06;;;13.79;51.46
32789;BME280;19141;48.980;8.410;2023-04-08T15:12:06;100764.81;;;13.70;52.31
32789;BME280;19141;48.980;8.410;2023-04-08T15:14:31;100770.88;;;13.64;53.37
32789;BME280;19141;48.980;8.410;2023-04-08T15:16:56;100767.44;;;13.93;52.20
32789;BME280;19141;48.980;8.410;2023-04-08T15:19:22;100770.22;;;13.99;51.56
32789;BME280;19141;48.980;8.410;2023-04-08T15:21:48;100768.41;;;13.39;54.06
32789;BME280;19141;48.980;8.410;2023-04-08T15:24:13;100767.97;;;13.27;54.25
32789;BME280;19141;48.980;8.410;2023-04-08T15:26:39;100783.56;;;13.24;55.10
32789;BME280;19141;48.980;8.410;2023-04-08T15:29:05;100783.56;;;13.47;53.28
32789;BME280;19141;48.980;8.410;2023-04-08T15:31:30;100786.47;;;13.60;52.55
32789;BME280;19141;48.980;8.410;2023-04-08T15:33:56;100788.59;;;13.65;52.93
32789;BME280;19141;48.980;8.410;2023-04-08T15:36:23;100786.34;;;13.53;54.31
32789;BME280;19141;48.980;8.410;2023-04-08T15:38:48;100783.63;;;13.39;56.77
32789;BME280;19141;48.980;8.410;2023-04-08T15:41:15;100780.63;;;13.11;55.36
32789;BME280;19141;48.980;8.410;2023-04-08T15:43:42;100784.41;;;13.24;54.16
32789;BME280;19141;48.980;8.410;2023-04-08T15:46:07;100784.94;;;13.12;54.37
32789;BME280;19141;48.980;8.410;2023-04-08T15:48:33;100786.56;;;12.90;55.91
32789;BME280;19141;48.980;8.410;2023-04-08T15:51:05;100787.41;;;12.51;57.08
32789;BME280;19141;48.980;8.410;2023-04-08T15:53:31;100790.22;;;12.58;55.52
32789;BME280;19141;48.980;8.410;2023-04-08T15:55:56;100788.81;;;12.39;56.01
32789;BME280;19141;48.980;8.410;2023-04-08T15:58:22;100784.41;;;12.54;55.70
32789;BME280;19141;48.980;8.410;2023-04-08T16:00:47;100792.28;;;12.47;55.87
32789;BME280;19141;48.980;8.410;2023-04-08T16:03:13;100793.38;;;12.61;56.16
32789;BME280;19141;48.980;8.410;2023-04-08T16:05:39;100796.00;;;12.69;55.21
32789;BME280;19141;48.980;8.410;2023-04-08T16:08:06;100785.13;;;12.40;56.82
32789;BME280;19141;48.980;8.410;2023-04-08T16:10:32;100795.94;;;12.46;55.77
32789;BME280;19141;48.980;8.410;2023-04-08T16:12:58;100796.56;;;12.57;57.47
32789;BME280;19141;48.980;8.410;2023-04-08T16:15:24;100799.06;;;12.66;55.92
32789;BME280;19141;48.980;8.410;2023-04-08T16:17:53;100801.09;;;12.56;56.33
32789;BME280;19141;48.980;8.410;2023-04-08T16:20:19;100799.59;;;12.54;56.84
32789;BME280;19141;48.980;8.410;2023-04-08T16:22:45;100802.78;;;12.49;56.93
32789;BME280;19141;48.980;8.410;2023-04-08T16:25:10;100804.06;;;12.61;56.56
32789;BME280;19141;48.980;8.410;2023-04-08T16:27:36;100804.25;;;12.52;56.35
32789;BME280;19141;48.980;8.410;2023-04-08T16:30:03;100812.47;;;12.50;56.99
32789;BME280;19141;48.980;8.410;2023-04-08T16:32:28;100805.47;;;12.41;56.27
32789;BME280;19141;48.980;8.410;2023-04-08T16:34:54;100812.50;;;12.26;59.35
32789;BME280;19141;48.980;8.410;2023-04-08T16:37:20;100807.66;;;12.37;58.53
32789;BME280;19141;48.980;8.410;2023-04-08T16:39:46;100816.84;;;12.35;57.79
32789;BME280;19141;48.980;8.410;2023-04-08T16:42:12;100809.50;;;12.37;58.67
32789;BME280;19141;48.980;8.410;2023-04-08T16:44:37;100814.06;;;12.20;57.92
32789;BME280;19141;48.980;8.410;2023-04-08T16:47:03;100820.53;;;12.26;58.32
32789;BME280;19141;48.980;8.410;2023-04-08T16:49:28;100812.84;;;12.31;59.32
32789;BME280;19141;48.980;8.410;2023-04-08T16:51:53;100818.84;;;12.41;58.30
32789;BME280;19141;48.980;8.410;2023-04-08T16:54:19;100821.19;;;12.36;58.35
32789;BME280;19141;48.980;8.410;2023-04-08T16:56:44;100812.38;;;12.27;59.17
32789;BME280;19141;48.980;8.410;2023-04-08T16:59:11;100822.19;;;12.35;59.21
32789;BME280;19141;48.980;8.410;2023-04-08T17:01:36;100834.88;;;12.41;60.35
32789;BME280;19141;48.980;8.410;2023-04-08T17:04:02;100827.19;;;12.38;59.57
32789;BME280;19141;48.980;8.410;2023-04-08T17:06:27;100833.38;;;12.30;60.22
32789;BME280;19141;48.980;8.410;2023-04-08T17:08:53;100828.06;;;12.22;62.97
32789;BME280;19141;48.980;8.410;2023-04-08T17:11:18;100828.53;;;12.34;60.67
32789;BME280;19141;48.980;8.410;2023-04-08T17:13:44;100832.91;;;12.10;61.70
32789;BME280;19141;48.980;8.410;2023-04-08T17:16:11;100842.59;;;12.19;61.81
32789;BME280;19141;48.980;8.410;2023-04-08T17:18:37;100841.09;;;12.09;61.79
32789;BME280;19141;48.980;8.410;2023-04-08T17:21:03;100844.94;;;11.98;62.33
32789;BME280;19141;48.980;8.410;2023-04-08T17:23:28;100841.59;;;12.12;61.94
32789;BME280;19141;48.980;8.410;2023-04-08T17:25:53;100849.59;;;12.20;61.50
32789;BME280;19141;48.980;8.410;2023-04-08T17:28:20;100846.28;;;11.94;63.22
32789;BME280;19141;48.980;8.410;2023-04-08T17:30:46;100853.63;;;12.00;63.38
32789;BME280;19141;48.980;8.410;2023-04-08T17:33:12;100852.59;;;11.93;64.07